createdAt,value
2017-05-09T00:00:27.368Z,81.26
2017-05-09T00:01:36.316Z,81.45
2017-05-09T00:02:45.592Z,81.26
2017-05-09T00:03:54.546Z,80.79
2017-05-09T00:05:03.914Z,81.17
2017-05-09T00:06:13.167Z,82.03
2017-05-09T00:07:22.120Z,81.45
2017-05-09T00:08:31.158Z,80.88
2017-05-09T00:09:40.113Z,81.74
2017-05-09T00:10:49.069Z,80.88
2017-05-09T00:11:58.321Z,81.74
2017-05-09T00:13:07.281Z,81.36
2017-05-09T00:14:16.243Z,80.98
2017-05-09T00:15:25.199Z,80.6
2017-05-09T00:16:34.159Z,80.13
2017-05-09T00:17:43.499Z,80.6
2017-05-09T00:18:52.453Z,79.84
2017-05-09T00:20:01.405Z,80.32
2017-05-09T00:21:10.359Z,79.84
2017-05-09T00:22:19.408Z,80.6
2017-05-09T00:23:28.696Z,80.13
2017-05-09T00:24:37.653Z,80.13
2017-05-09T00:25:46.611Z,81.36
2017-05-09T00:26:55.564Z,82.21
2017-05-09T00:28:04.509Z,81.07
2017-05-09T00:29:13.759Z,82.21
2017-05-09T00:30:23.042Z,81.84
2017-05-09T00:31:31.999Z,80.6
2017-05-09T00:32:40.957Z,80.41
2017-05-09T00:33:49.914Z,80.88
2017-05-09T00:34:59.118Z,82.21
2017-05-09T00:36:08.074Z,81.93
2017-05-09T00:37:17.025Z,83.36
2017-05-09T00:38:26.016Z,83.83
2017-05-09T00:39:35.055Z,84.01
2017-05-09T00:40:44.310Z,82.4
2017-05-09T00:41:53.263Z,82.21
2017-05-09T00:43:02.220Z,82.03
2017-05-09T00:44:11.170Z,81.07
2017-05-09T00:45:20.201Z,80.98
2017-05-09T00:46:29.452Z,80.32
2017-05-09T00:47:38.402Z,81.07
2017-05-09T00:48:47.358Z,80.69
2017-05-09T00:49:56.398Z,79.84
2017-05-09T00:51:05.845Z,79.94
2017-05-09T00:52:15.101Z,79.94
2017-05-09T00:53:24.230Z,80.41
2017-05-09T00:54:33.191Z,80.88
2017-05-09T00:55:42.148Z,79.27
2017-05-09T00:56:51.100Z,79.65
2017-05-09T00:58:00.363Z,80.41
2017-05-09T00:59:09.325Z,81.21
2017-05-09T01:00:18.282Z,79.17
2017-05-09T01:01:27.229Z,78.32
2017-05-09T01:02:36.179Z,78.32
2017-05-09T01:03:45.381Z,79.27
2017-05-09T01:04:54.326Z,80.13
2017-05-09T01:06:03.275Z,79.46
2017-05-09T01:07:12.230Z,79.46
2017-05-09T01:08:21.188Z,79.08
2017-05-09T01:09:30.447Z,79.17
2017-05-09T01:10:39.411Z,78.61
2017-05-09T01:11:48.365Z,79.27
2017-05-09T01:12:57.413Z,79.08
2017-05-09T01:14:06.376Z,79.65
2017-05-09T01:15:15.630Z,79.74
2017-05-09T01:16:24.580Z,78.61
2017-05-09T01:17:33.530Z,78.32
2017-05-09T01:18:42.489Z,78.27
2017-05-09T01:19:51.447Z,78.03
2017-05-09T01:21:00.702Z,77.18
2017-05-09T01:22:09.652Z,77.12
2017-05-09T01:23:18.602Z,76.04
2017-05-09T01:24:27.729Z,77.47
2017-05-09T01:25:36.682Z,79.17
2017-05-09T01:26:45.938Z,78.13
2017-05-09T01:27:54.888Z,76.9
2017-05-09T01:29:03.841Z,76.8
2017-05-09T01:30:12.795Z,77.09
2017-05-09T01:31:21.746Z,77.94
2017-05-09T01:32:30.997Z,78.42
2017-05-09T01:33:39.953Z,79.36
2017-05-09T01:34:48.946Z,78.61
2017-05-09T01:35:57.987Z,77.47
2017-05-09T01:37:06.939Z,77.66
2017-05-09T01:38:16.198Z,77.75
2017-05-09T01:39:25.480Z,79.08
2017-05-09T01:40:34.434Z,79.36
2017-05-09T01:41:43.390Z,77.94
2017-05-09T01:42:52.343Z,76.99
2017-05-09T01:44:01.877Z,77.75
2017-05-09T01:45:10.831Z,78.23
2017-05-09T01:46:19.872Z,78.99
2017-05-09T01:47:28.830Z,78.8
2017-05-09T01:48:37.782Z,79.27
2017-05-09T01:49:47.034Z,78.8
2017-05-09T01:50:55.991Z,79.46
2017-05-09T01:52:05.031Z,79.84
2017-05-09T01:53:13.990Z,78.89
2017-05-09T01:54:22.971Z,79.17
2017-05-09T01:55:32.171Z,79.65
2017-05-09T01:56:41.126Z,78.8
2017-05-09T01:57:50.172Z,79.46
2017-05-09T01:58:59.208Z,79.46
2017-05-09T02:00:08.251Z,80.22
2017-05-09T02:01:17.506Z,80.13
2017-05-09T02:02:26.497Z,78.61
2017-05-09T02:03:35.453Z,78.51
2017-05-09T02:04:44.409Z,78.89
2017-05-09T02:05:53.448Z,78.99
2017-05-09T02:07:02.656Z,79.65
2017-05-09T02:08:11.610Z,80.88
2017-05-09T02:09:20.562Z,80.03
2017-05-09T02:10:29.514Z,79.55
2017-05-09T02:11:38.467Z,80.13
2017-05-09T02:12:47.669Z,79.12
2017-05-09T02:13:56.626Z,79.12
2017-05-09T02:15:05.582Z,79.31
2017-05-09T02:16:14.536Z,79.79
2017-05-09T02:17:23.529Z,79.31
2017-05-09T02:18:32.788Z,79.12
2017-05-09T02:19:41.742Z,79.12
2017-05-09T02:20:50.694Z,79.31
2017-05-09T02:21:59.646Z,79.79
2017-05-09T02:23:08.610Z,79.88
2017-05-09T02:24:17.873Z,79.79
2017-05-09T02:25:26.840Z,79.88
2017-05-09T02:26:35.802Z,79.69
2017-05-09T02:27:44.757Z,78.93
2017-05-09T02:28:53.713Z,79.12
2017-05-09T02:30:03.054Z,80.26
2017-05-09T02:31:12.012Z,80.64
2017-05-09T02:32:20.974Z,80.83
2017-05-09T02:33:29.925Z,79.88
2017-05-09T02:34:38.871Z,79.69
2017-05-09T02:35:48.134Z,79.5
2017-05-09T02:36:57.086Z,79.97
2017-05-09T02:38:06.039Z,79.5
2017-05-09T02:39:15.320Z,78.83
2017-05-09T02:40:24.279Z,79.31
2017-05-09T02:41:33.529Z,79.31
2017-05-09T02:42:42.475Z,80.07
2017-05-09T02:43:51.518Z,80.26
2017-05-09T02:45:00.478Z,80.93
2017-05-09T02:46:09.424Z,81.3
2017-05-09T02:47:18.635Z,80.35
2017-05-09T02:48:27.677Z,80.07
2017-05-09T02:49:36.636Z,79.22
2017-05-09T02:50:45.586Z,79.69
2017-05-09T02:51:54.537Z,79.97
2017-05-09T02:53:03.880Z,79.79
2017-05-09T02:54:12.836Z,79.79
2017-05-09T02:55:21.874Z,80.07
2017-05-09T02:56:30.825Z,80.83
2017-05-09T02:57:39.771Z,80.64
2017-05-09T02:58:49.025Z,80.64
2017-05-09T02:59:57.981Z,80.07
2017-05-09T03:01:06.937Z,79.79
2017-05-09T03:02:15.916Z,80.07
2017-05-09T03:03:24.968Z,79.88
2017-05-09T03:04:34.266Z,79.12
2017-05-09T03:05:43.217Z,78.64
2017-05-09T03:06:52.172Z,79.97
2017-05-09T03:08:01.124Z,78.36
2017-05-09T03:09:10.081Z,76.93
2017-05-09T03:10:34.471Z,76.84
2017-05-09T03:11:43.424Z,77.89
2017-05-09T03:12:52.374Z,79.31
2017-05-09T03:14:01.338Z,78.64
2017-05-09T03:15:10.291Z,79.03
2017-05-09T03:16:19.487Z,79.69
2017-05-09T03:17:28.445Z,79.79
2017-05-09T03:18:37.397Z,79.5
2017-05-09T03:19:46.355Z,77.51
2017-05-09T03:20:55.309Z,77.41
2017-05-09T03:22:04.560Z,78.64
2017-05-09T03:23:13.519Z,79.31
2017-05-09T03:24:22.472Z,79.5
2017-05-09T03:25:31.752Z,80.26
2017-05-09T03:26:40.708Z,79.5
2017-05-09T03:27:49.911Z,80.26
2017-05-09T03:28:58.871Z,80.07
2017-05-09T03:30:07.858Z,79.12
2017-05-09T03:31:16.804Z,78.55
2017-05-09T03:32:25.759Z,79.12
2017-05-09T03:33:34.958Z,79.41
2017-05-09T03:34:43.912Z,79.88
2017-05-09T03:35:52.866Z,80.83
2017-05-09T03:37:01.830Z,80.83
2017-05-09T03:38:10.786Z,79.97
2017-05-09T03:39:20.013Z,79.79
2017-05-09T03:40:29.057Z,79.6
2017-05-09T03:41:38.099Z,78.93
2017-05-09T03:42:47.050Z,78.74
2017-05-09T03:43:56.010Z,79.12
2017-05-09T03:45:05.298Z,79.22
2017-05-09T03:46:14.247Z,78.64
2017-05-09T03:47:23.198Z,78.74
2017-05-09T03:48:32.239Z,79.12
2017-05-09T03:49:41.538Z,79.12
2017-05-09T03:50:50.737Z,79.31
2017-05-09T03:51:59.686Z,79.69
2017-05-09T03:53:08.641Z,79.12
2017-05-09T03:54:17.601Z,79.79
2017-05-09T03:55:26.557Z,80.55
2017-05-09T03:56:35.881Z,81.12
2017-05-09T03:57:44.919Z,80.45
2017-05-09T03:58:53.879Z,81.12
2017-05-09T04:00:02.831Z,80.64
2017-05-09T04:01:11.788Z,80.64
2017-05-09T04:02:21.046Z,81.02
2017-05-09T04:03:30.011Z,81.02
2017-05-09T04:04:39.059Z,79.92
2017-05-09T04:05:48.024Z,79.79
2017-05-09T04:06:56.980Z,79.69
2017-05-09T04:08:06.280Z,79.6
2017-05-09T04:09:15.235Z,79.88
2017-05-09T04:10:24.187Z,79.22
2017-05-09T04:11:33.138Z,79.97
2017-05-09T04:12:42.089Z,79.97
2017-05-09T04:13:51.290Z,79.97
2017-05-09T04:15:00.253Z,79.88
2017-05-09T04:16:09.208Z,80.16
2017-05-09T04:17:18.483Z,80.07
2017-05-09T04:18:27.435Z,80.87
2017-05-09T04:19:36.651Z,80.68
2017-05-09T04:20:45.603Z,80.4
2017-05-09T04:21:54.561Z,80.49
2017-05-09T04:23:03.548Z,80.58
2017-05-09T04:24:12.503Z,79.92
2017-05-09T04:25:21.891Z,79.83
2017-05-09T04:26:30.844Z,80.11
2017-05-09T04:27:39.796Z,80.58
2017-05-09T04:28:48.749Z,80.3
2017-05-09T04:29:57.791Z,80.3
2017-05-09T04:31:06.999Z,79.83
2017-05-09T04:32:16.038Z,79.83
2017-05-09T04:33:24.992Z,79.54
2017-05-09T04:34:33.955Z,80.3
2017-05-09T04:35:42.905Z,80.49
2017-05-09T04:36:52.102Z,80.02
2017-05-09T04:38:01.062Z,80.3
2017-05-09T04:39:10.014Z,80.02
2017-05-09T04:40:18.971Z,78.97
2017-05-09T04:41:27.928Z,78.88
2017-05-09T04:42:37.132Z,79.16
2017-05-09T04:43:46.429Z,78.97
2017-05-09T04:44:55.472Z,78.78
2017-05-09T04:46:04.422Z,77.83
2017-05-09T04:47:13.374Z,77.45
2017-05-09T04:48:22.577Z,76.97
2017-05-09T04:49:31.539Z,75.84
2017-05-09T04:50:40.487Z,76.31
2017-05-09T04:51:49.530Z,77.17
2017-05-09T04:52:58.491Z,77.36
2017-05-09T04:54:07.695Z,78.3
2017-05-09T04:55:16.640Z,77.64
2017-05-09T04:56:25.601Z,76.4
2017-05-09T04:57:34.554Z,77.07
2017-05-09T04:58:43.522Z,76.97
2017-05-09T04:59:53.058Z,78.02
2017-05-09T05:01:02.013Z,77.92
2017-05-09T05:02:10.968Z,78.02
2017-05-09T05:03:19.919Z,77.45
2017-05-09T05:04:28.873Z,76.88
2017-05-09T05:05:38.161Z,76.59
2017-05-09T05:06:47.119Z,77.07
2017-05-09T05:07:56.072Z,75.26
2017-05-09T05:09:05.023Z,76.12
2017-05-09T05:10:13.972Z,76.21
2017-05-09T05:11:23.179Z,76.12
2017-05-09T05:12:32.136Z,75.84
2017-05-09T05:13:41.086Z,76.12
2017-05-09T05:14:50.366Z,76.03
2017-05-09T05:15:59.324Z,75.74
2017-05-09T05:17:08.526Z,75.64
2017-05-09T05:18:17.478Z,76.03
2017-05-09T05:19:26.433Z,76.4
2017-05-09T05:20:35.635Z,75.45
2017-05-09T05:21:44.773Z,74.6
2017-05-09T05:22:53.976Z,76.03
2017-05-09T05:24:03.827Z,76.31
2017-05-09T05:25:12.816Z,76.4
2017-05-09T05:26:21.770Z,75.36
2017-05-09T05:27:30.720Z,74.44
2017-05-09T05:28:39.938Z,74.73
2017-05-09T05:29:48.979Z,74.63
2017-05-09T05:30:57.928Z,75.49
2017-05-09T05:32:06.967Z,76.54
2017-05-09T05:33:15.925Z,76.92
2017-05-09T05:34:25.126Z,76.25
2017-05-09T05:35:34.084Z,74.16
2017-05-09T05:36:43.038Z,73.11
2017-05-09T05:37:52.092Z,74.73
2017-05-09T05:39:01.152Z,74.79
2017-05-09T05:40:10.413Z,76.16
2017-05-09T05:41:19.436Z,76.59
2017-05-09T05:42:28.849Z,76.35
2017-05-09T05:43:37.914Z,76.54
2017-05-09T05:44:46.893Z,75.87
2017-05-09T05:45:56.240Z,75.4
2017-05-09T05:47:05.346Z,75.11
2017-05-09T05:48:14.300Z,74.63
2017-05-09T05:49:23.441Z,75.4
2017-05-09T05:50:32.442Z,74.07
2017-05-09T05:51:42.468Z,74.73
2017-05-09T05:52:51.450Z,76.16
2017-05-09T05:54:00.511Z,75.49
2017-05-09T05:55:09.661Z,73.4
2017-05-09T05:56:18.612Z,72.74
2017-05-09T05:57:27.828Z,72.35
2017-05-09T05:58:36.869Z,72.55
2017-05-09T05:59:46.159Z,73.21
2017-05-09T06:00:55.111Z,71.88
2017-05-09T06:02:04.125Z,71.41
2017-05-09T06:03:13.377Z,72.07
2017-05-09T06:04:22.331Z,71.69
2017-05-09T06:05:31.363Z,72.07
2017-05-09T06:06:40.337Z,71.59
2017-05-09T06:07:49.595Z,71.41
2017-05-09T06:08:59.323Z,71.78
2017-05-09T06:10:08.519Z,71.31
2017-05-09T06:11:17.615Z,71.15
2017-05-09T06:12:26.714Z,70.87
2017-05-09T06:13:35.878Z,69.44
2017-05-09T06:14:45.398Z,68.01
2017-05-09T06:15:54.429Z,68.49
2017-05-09T06:17:03.584Z,68.59
2017-05-09T06:18:12.767Z,68.96
2017-05-09T06:19:21.797Z,69.63
2017-05-09T06:20:31.378Z,69.73
2017-05-09T06:21:40.415Z,68.77
2017-05-09T06:22:49.375Z,66.78
2017-05-09T06:23:58.335Z,64.02
2017-05-09T06:25:07.295Z,65.06
2017-05-09T06:26:16.499Z,64.5
2017-05-09T06:27:25.459Z,62.97
2017-05-09T06:28:34.412Z,63.39
2017-05-09T06:29:43.369Z,62.62
2017-05-09T06:30:52.327Z,63.76
2017-05-09T06:32:01.603Z,64.34
2017-05-09T06:33:10.561Z,63.96
2017-05-09T06:34:19.839Z,63.1
2017-05-09T06:35:28.793Z,63.67
2017-05-09T06:36:37.786Z,62.91
2017-05-09T06:37:47.045Z,62.53
2017-05-09T06:38:56.089Z,60.66
2017-05-09T06:40:05.041Z,61.22
2017-05-09T06:41:13.998Z,59.7
2017-05-09T06:42:23.276Z,58.65
2017-05-09T06:43:32.530Z,59.23
2017-05-09T06:44:41.481Z,59.13
2017-05-09T06:45:50.778Z,59.23
2017-05-09T06:46:59.736Z,58.08
2017-05-09T06:48:08.687Z,57.13
2017-05-09T06:49:18.284Z,55.9
2017-05-09T06:50:27.244Z,56.65
2017-05-09T06:51:36.298Z,57.1
2017-05-09T06:52:45.392Z,57.1
2017-05-09T06:53:54.377Z,56.82
2017-05-09T06:55:03.751Z,57.6
2017-05-09T06:56:12.727Z,56.44
2017-05-09T06:57:21.704Z,56.72
2017-05-09T06:58:30.681Z,56.53
2017-05-09T06:59:39.661Z,56.24
2017-05-09T07:00:49.021Z,55.87
2017-05-09T07:01:58.003Z,55.77
2017-05-09T07:03:06.976Z,56.34
2017-05-09T07:04:15.951Z,56.24
2017-05-09T07:05:24.929Z,55.51
2017-05-09T07:06:34.284Z,53.7
2017-05-09T07:07:43.240Z,54.08
2017-05-09T07:08:52.200Z,54.85
2017-05-09T07:10:01.160Z,55.22
2017-05-09T07:11:10.113Z,54.56
2017-05-09T07:12:19.642Z,53.7
2017-05-09T07:13:28.597Z,53.61
2017-05-09T07:14:37.563Z,53.8
2017-05-09T07:15:46.545Z,53.61
2017-05-09T07:16:55.497Z,52.37
2017-05-09T07:18:05.033Z,53.7
2017-05-09T07:19:13.999Z,53.7
2017-05-09T07:20:22.963Z,53.16
2017-05-09T07:21:31.960Z,52.78
2017-05-09T07:22:41.107Z,52.4
2017-05-09T07:23:51.023Z,51.45
2017-05-09T07:24:59.993Z,51.54
2017-05-09T07:26:08.959Z,51.92
2017-05-09T07:27:18.002Z,52.18
2017-05-09T07:28:26.955Z,52.47
2017-05-09T07:29:36.160Z,52.94
2017-05-09T07:30:45.169Z,52.37
2017-05-09T07:31:54.134Z,53.13
2017-05-09T07:33:03.178Z,54.18
2017-05-09T07:34:12.131Z,54.08
2017-05-09T07:35:21.338Z,53.52
2017-05-09T07:36:30.299Z,53.89
2017-05-09T07:37:39.259Z,53.52
2017-05-09T07:38:48.221Z,54.37
2017-05-09T07:39:57.186Z,53.99
2017-05-09T07:41:06.397Z,53.42
2017-05-09T07:42:15.365Z,53.89
2017-05-09T07:43:24.651Z,54.08
2017-05-09T07:44:33.641Z,54.37
2017-05-09T07:45:42.609Z,54.47
2017-05-09T07:46:51.956Z,53.89
2017-05-09T07:48:01.003Z,53.83
2017-05-09T07:49:09.992Z,54.02
2017-05-09T07:50:18.952Z,54.39
2017-05-09T07:51:27.907Z,54.49
2017-05-09T07:52:37.168Z,54.21
2017-05-09T07:53:46.136Z,53.64
2017-05-09T07:54:55.095Z,53.56
2017-05-09T07:56:04.143Z,53.09
2017-05-09T07:57:13.103Z,52.9
2017-05-09T07:58:22.439Z,52.71
2017-05-09T07:59:31.482Z,52.14
2017-05-09T08:00:40.442Z,51.95
2017-05-09T08:01:49.490Z,51.88
2017-05-09T08:02:58.446Z,51.5
2017-05-09T08:04:07.696Z,50.73
2017-05-09T08:05:16.661Z,50.92
2017-05-09T08:06:25.616Z,50.83
2017-05-09T08:07:34.574Z,50.9
2017-05-09T08:08:43.530Z,50.99
2017-05-09T08:09:52.787Z,51.18
2017-05-09T08:11:01.754Z,51.28
2017-05-09T08:12:10.707Z,51.18
2017-05-09T08:13:19.746Z,51.85
2017-05-09T08:14:28.713Z,52.04
2017-05-09T08:15:37.965Z,52.8
2017-05-09T08:16:47.017Z,52.9
2017-05-09T08:17:55.979Z,52.23
2017-05-09T08:19:04.937Z,51.95
2017-05-09T08:20:13.896Z,52.42
2017-05-09T08:21:23.169Z,52.52
2017-05-09T08:22:32.134Z,52.42
2017-05-09T08:23:41.098Z,52.52
2017-05-09T08:24:50.141Z,52.9
2017-05-09T08:25:59.099Z,51.95
2017-05-09T08:27:08.305Z,52.26
2017-05-09T08:28:17.351Z,52.55
2017-05-09T08:29:26.350Z,51.97
2017-05-09T08:30:35.304Z,50.92
2017-05-09T08:31:44.343Z,50.54
2017-05-09T08:32:53.690Z,50.45
2017-05-09T08:34:02.644Z,50.16
2017-05-09T08:35:11.776Z,49.59
2017-05-09T08:36:20.817Z,49.97
2017-05-09T08:37:29.773Z,49.68
2017-05-09T08:38:39.033Z,50.83
2017-05-09T08:39:47.987Z,50.35
2017-05-09T08:40:56.941Z,50.73
2017-05-09T08:42:05.987Z,51.12
2017-05-09T08:43:14.945Z,50.54
2017-05-09T08:44:24.204Z,49.62
2017-05-09T08:45:33.172Z,48.94
2017-05-09T08:46:42.138Z,47.42
2017-05-09T08:47:51.093Z,46.18
2017-05-09T08:49:00.140Z,46.47
2017-05-09T08:50:09.395Z,46.27
2017-05-09T08:51:18.438Z,45.1
2017-05-09T08:52:27.399Z,43.87
2017-05-09T08:53:36.362Z,43.03
2017-05-09T08:54:45.322Z,43.03
2017-05-09T08:55:54.613Z,43.41
2017-05-09T08:57:03.660Z,44.46
2017-05-09T08:58:12.612Z,45.29
2017-05-09T08:59:21.744Z,44.73
2017-05-09T09:00:30.700Z,44.37
2017-05-09T09:01:39.958Z,44.08
2017-05-09T09:02:48.913Z,43.6
2017-05-09T09:03:57.871Z,43.79
2017-05-09T09:05:06.832Z,43.51
2017-05-09T09:06:15.789Z,44.25
2017-05-09T09:07:25.048Z,44.06
2017-05-09T09:08:34.178Z,47.78
2017-05-09T09:09:43.127Z,52.07
2017-05-09T09:10:52.092Z,59.76
2017-05-09T09:12:01.370Z,67.58
2017-05-09T09:13:10.631Z,71.64
2017-05-09T09:14:19.590Z,71.03
2017-05-09T09:15:28.545Z,72.08
2017-05-09T09:16:37.499Z,75.85
2017-05-09T09:17:46.453Z,79.28
2017-05-09T09:18:55.716Z,82.67
2017-05-09T09:20:04.673Z,83.23
2017-05-09T09:21:13.639Z,83.42
2017-05-09T09:22:22.594Z,86.09
2017-05-09T09:23:31.549Z,88.09
2017-05-09T09:24:40.802Z,89.42
2017-05-09T09:25:49.758Z,90.28
2017-05-09T09:26:58.718Z,90.75
2017-05-09T09:28:07.669Z,91.84
2017-05-09T09:29:16.623Z,91.37
2017-05-09T09:30:25.879Z,89.75
2017-05-09T09:31:34.828Z,89.27
2017-05-09T09:32:43.787Z,87.37
2017-05-09T09:33:52.749Z,88.79
2017-05-09T09:35:02.031Z,90.32
2017-05-09T09:36:11.383Z,91.46
2017-05-09T09:37:20.430Z,92.7
2017-05-09T09:38:29.469Z,89.65
2017-05-09T09:39:38.513Z,86.99
2017-05-09T09:40:47.478Z,88.51
2017-05-09T09:41:57.102Z,87.56
2017-05-09T09:43:06.059Z,85.66
2017-05-09T09:44:15.097Z,84.99
2017-05-09T09:45:24.050Z,88.13
2017-05-09T09:46:33.015Z,86.8
2017-05-09T09:47:42.275Z,87.27
2017-05-09T09:48:51.315Z,82.42
2017-05-09T09:50:00.593Z,81.95
2017-05-09T09:51:09.549Z,80.9
2017-05-09T09:52:18.508Z,83.28
2017-05-09T09:53:27.768Z,83.09
2017-05-09T09:54:36.720Z,82.14
2017-05-09T09:55:45.765Z,80.13
2017-05-09T09:56:54.714Z,79.28
2017-05-09T09:58:03.665Z,85.47
2017-05-09T09:59:13.245Z,82.7
2017-05-09T10:00:22.202Z,85.56
2017-05-09T10:01:31.164Z,87.08
2017-05-09T10:02:40.122Z,81.89
2017-05-09T10:03:49.167Z,73.7
2017-05-09T10:04:58.422Z,76.94
2017-05-09T10:06:07.465Z,83.03
2017-05-09T10:07:16.425Z,86.8
2017-05-09T10:08:25.381Z,89.41
2017-05-09T10:09:34.338Z,85.7
2017-05-09T10:10:43.607Z,81.79
2017-05-09T10:11:52.887Z,79.7
2017-05-09T10:13:01.876Z,84.27
2017-05-09T10:14:10.830Z,80.65
2017-05-09T10:15:19.792Z,80.27
2017-05-09T10:16:29.051Z,80.36
2017-05-09T10:17:38.007Z,74.75
2017-05-09T10:18:47.055Z,70.65
2017-05-09T10:19:56.014Z,80.12
2017-05-09T10:21:05.056Z,86.36
2017-05-09T10:22:14.410Z,86.98
2017-05-09T10:23:23.453Z,86.51
2017-05-09T10:24:32.411Z,84.79
2017-05-09T10:25:41.372Z,85.17
2017-05-09T10:26:50.330Z,84.88
2017-05-09T10:27:59.591Z,81.17
2017-05-09T10:29:08.548Z,73.36
2017-05-09T10:30:17.503Z,75.45
2017-05-09T10:31:26.548Z,79.7
2017-05-09T10:32:35.832Z,76.84
2017-05-09T10:33:45.094Z,77.42
2017-05-09T10:34:54.139Z,79.99
2017-05-09T10:36:03.093Z,81.6
2017-05-09T10:37:12.052Z,83.51
2017-05-09T10:38:21.011Z,82.08
2017-05-09T10:39:30.351Z,82.93
2017-05-09T10:40:39.316Z,84.84
2017-05-09T10:41:48.271Z,83.98
2017-05-09T10:42:57.223Z,83.13
2017-05-09T10:44:06.183Z,84.46
2017-05-09T10:45:15.709Z,85.22
2017-05-09T10:46:24.664Z,88.18
2017-05-09T10:47:33.627Z,88.08
2017-05-09T10:48:42.580Z,89.32
2017-05-09T10:49:51.535Z,88.18
2017-05-09T10:51:00.789Z,88.37
2017-05-09T10:52:09.750Z,88.51
2017-05-09T10:53:18.792Z,82.21
2017-05-09T10:54:27.792Z,81.26
2017-05-09T10:55:36.753Z,86.88
2017-05-09T10:56:46.011Z,82.79
2017-05-09T10:57:54.966Z,80.98
2017-05-09T10:59:03.920Z,79.64
2017-05-09T11:00:13.200Z,78.88
2017-05-09T11:01:22.241Z,80.69
2017-05-09T11:02:31.499Z,75.79
2017-05-09T11:03:40.459Z,77.51
2017-05-09T11:04:49.419Z,75.13
2017-05-09T11:05:58.372Z,75.04
2017-05-09T11:07:07.329Z,73.51
2017-05-09T11:08:16.537Z,72.08
2017-05-09T11:09:25.584Z,72.08
2017-05-09T11:10:34.535Z,76.33
2017-05-09T11:11:43.487Z,76.23
2017-05-09T11:12:52.441Z,77.09
2017-05-09T11:14:01.649Z,76.33
2017-05-09T11:15:10.605Z,75.57
2017-05-09T11:16:19.559Z,78.23
2017-05-09T11:17:28.511Z,78.8
2017-05-09T11:18:37.472Z,80.61
2017-05-09T11:19:46.727Z,80.8
2017-05-09T11:20:55.682Z,84.56
2017-05-09T11:22:04.680Z,85.14
2017-05-09T11:23:13.639Z,87.71
2017-05-09T11:24:22.593Z,87.61
2017-05-09T11:25:31.852Z,88.85
2017-05-09T11:26:40.808Z,88.52
2017-05-09T11:27:49.760Z,89.28
2017-05-09T11:28:58.797Z,89.66
2017-05-09T11:30:07.752Z,90.8
2017-05-09T11:31:17.009Z,92.03
2017-05-09T11:32:25.979Z,92.89
2017-05-09T11:33:34.943Z,92.7
2017-05-09T11:34:43.899Z,93.51
2017-05-09T11:35:52.853Z,93.41
2017-05-09T11:37:02.112Z,92.66
2017-05-09T11:38:11.070Z,91.89
2017-05-09T11:39:20.026Z,92.94
2017-05-09T11:40:28.982Z,93.99
2017-05-09T11:41:37.931Z,93.89
2017-05-09T11:42:47.184Z,94.08
2017-05-09T11:43:56.135Z,95.03
2017-05-09T11:45:05.086Z,94.46
2017-05-09T11:46:14.129Z,94.65
2017-05-09T11:47:23.081Z,95.51
2017-05-09T11:48:32.334Z,95.79
2017-05-09T11:49:41.290Z,95.79
2017-05-09T11:50:50.240Z,95.89
2017-05-09T11:51:59.538Z,95.41
2017-05-09T11:53:08.817Z,95.7
2017-05-09T11:54:18.073Z,95.98
2017-05-09T11:55:27.027Z,96.26
2017-05-09T11:56:36.064Z,96.26
2017-05-09T11:57:45.015Z,96.45
2017-05-09T11:58:53.973Z,96.84
2017-05-09T12:00:03.316Z,96.84
2017-05-09T12:01:12.268Z,96.08
2017-05-09T12:02:21.220Z,95.84
2017-05-09T12:03:30.172Z,95.84
2017-05-09T12:04:39.136Z,95.84
2017-05-09T12:05:48.340Z,95.94
2017-05-09T12:06:57.294Z,96.31
2017-05-09T12:08:06.259Z,96.89
2017-05-09T12:09:15.213Z,97.08
2017-05-09T12:10:24.249Z,96.98
2017-05-09T12:11:33.592Z,97.17
2017-05-09T12:12:42.552Z,97.27
2017-05-09T12:13:51.501Z,97.55
2017-05-09T12:15:00.454Z,97.83
2017-05-09T12:16:09.412Z,97.6
2017-05-09T12:17:18.620Z,97.36
2017-05-09T12:18:27.569Z,97.98
2017-05-09T12:19:36.525Z,97.5
2017-05-09T12:20:45.482Z,97.22
2017-05-09T12:21:54.762Z,96.89
2017-05-09T12:23:03.966Z,96.89
2017-05-09T12:24:12.920Z,97.55
2017-05-09T12:25:21.959Z,97.74
2017-05-09T12:26:30.999Z,97.98
2017-05-09T12:27:39.953Z,96.46
2017-05-09T12:28:49.157Z,96.08
2017-05-09T12:29:58.121Z,96.17
2017-05-09T12:31:07.071Z,96.89
2017-05-09T12:32:16.025Z,96.98
2017-05-09T12:33:24.975Z,97.27
2017-05-09T12:34:34.231Z,95.46
2017-05-09T12:35:43.216Z,95.94
2017-05-09T12:36:52.255Z,96.69
2017-05-09T12:38:01.205Z,97.55
2017-05-09T12:39:10.167Z,97.17
2017-05-09T12:40:19.419Z,96.89
2017-05-09T12:41:28.373Z,95.84
2017-05-09T12:42:37.339Z,96.12
2017-05-09T12:43:46.308Z,96.98
2017-05-09T12:44:55.271Z,97.08
2017-05-09T12:46:04.564Z,97.64
2017-05-09T12:47:13.518Z,98.69
2017-05-09T12:48:22.469Z,99.07
2017-05-09T12:49:31.424Z,99.16
2017-05-09T12:50:40.372Z,99.02
2017-05-09T12:51:49.626Z,99.02
2017-05-09T12:52:58.589Z,99.31
2017-05-09T12:54:07.546Z,98.83
2017-05-09T12:55:16.495Z,96.26
2017-05-09T12:56:25.449Z,94.46
2017-05-09T12:57:34.707Z,92.75
2017-05-09T12:58:43.660Z,95.89
2017-05-09T12:59:52.613Z,95.98
2017-05-09T13:01:01.568Z,94.84
2017-05-09T13:02:10.521Z,95.12
2017-05-09T13:03:20.137Z,97.03
2017-05-09T13:04:29.096Z,97.6
2017-05-09T13:05:38.045Z,97.98
2017-05-09T13:06:46.997Z,97.5
2017-05-09T13:07:55.954Z,97.6
2017-05-09T13:09:05.207Z,98.74
2017-05-09T13:10:14.158Z,98.93
2017-05-09T13:11:23.111Z,99.17
2017-05-09T13:12:32.061Z,98.88
2017-05-09T13:13:41.052Z,95.08
2017-05-09T13:14:50.264Z,94.7
2017-05-09T13:15:59.219Z,95.89
2017-05-09T13:17:08.173Z,95.22
2017-05-09T13:18:17.123Z,95.98
2017-05-09T13:19:26.077Z,97.22
2017-05-09T13:20:35.422Z,96.03
2017-05-09T13:21:44.373Z,95.94
2017-05-09T13:22:53.329Z,97.08
2017-05-09T13:24:02.279Z,96.98
2017-05-09T13:25:11.237Z,97.08
2017-05-09T13:26:20.492Z,95.27
2017-05-09T13:27:29.453Z,95.32
2017-05-09T13:28:38.408Z,96.12
2017-05-09T13:29:47.360Z,96.94
2017-05-09T13:30:56.320Z,97.08
2017-05-09T13:32:05.573Z,97.27
2017-05-09T13:33:14.551Z,96.94
2017-05-09T13:34:23.511Z,97.17
2017-05-09T13:35:32.461Z,97.46
2017-05-09T13:36:41.738Z,97.55
2017-05-09T13:37:50.997Z,96.51
2017-05-09T13:38:59.950Z,96.79
2017-05-09T13:40:08.902Z,97.55
2017-05-09T13:41:17.950Z,97.84
2017-05-09T13:42:26.905Z,97.36
2017-05-09T13:43:36.116Z,95.56
2017-05-09T13:44:45.075Z,95.75
2017-05-09T13:45:54.124Z,92.41
2017-05-09T13:47:03.076Z,94.13
2017-05-09T13:48:12.027Z,93.65
2017-05-09T13:49:21.285Z,96.03
2017-05-09T13:50:30.240Z,96.41
2017-05-09T13:51:39.288Z,96.51
2017-05-09T13:52:48.244Z,95.17
2017-05-09T13:53:57.846Z,95.84
2017-05-09T13:55:07.194Z,96.03
2017-05-09T13:56:16.194Z,97.08
2017-05-09T13:57:25.192Z,96.31
2017-05-09T13:58:34.155Z,96.12
2017-05-09T13:59:43.110Z,94.79
2017-05-09T14:00:52.517Z,95.08
2017-05-09T14:02:02.235Z,93.46
2017-05-09T14:03:11.372Z,92.32
2017-05-09T14:04:20.608Z,95.17
2017-05-09T14:05:29.736Z,95.84
2017-05-09T14:06:39.439Z,93.74
2017-05-09T14:07:48.624Z,95.56
2017-05-09T14:08:57.617Z,96.89
2017-05-09T14:10:06.698Z,96.6
2017-05-09T14:11:15.791Z,95.89
2017-05-09T14:12:25.581Z,94.56
2017-05-09T14:13:34.646Z,94.84
2017-05-09T14:14:43.804Z,86.84
2017-05-09T14:15:53.022Z,89.03
2017-05-09T14:17:02.624Z,84.04
2017-05-09T14:18:11.930Z,85.08
2017-05-09T14:19:21.279Z,90.13
2017-05-09T14:20:30.618Z,92.79
2017-05-09T14:21:39.960Z,90.51
2017-05-09T14:22:49.243Z,91.84
2017-05-09T14:23:58.697Z,94.22
2017-05-09T14:25:07.945Z,94.03
2017-05-09T14:26:16.981Z,93.37
2017-05-09T14:27:25.979Z,92.22
2017-05-09T14:28:35.143Z,90.51
2017-05-09T14:29:44.553Z,88.13
2017-05-09T14:30:53.850Z,91.84
2017-05-09T14:32:02.880Z,93.55
2017-05-09T14:33:12.256Z,93.84
2017-05-09T14:34:21.232Z,95.75
2017-05-09T14:35:31.066Z,96.22
2017-05-09T14:36:40.198Z,91.89
2017-05-09T14:37:49.181Z,91.22
2017-05-09T14:38:58.265Z,92.65
2017-05-09T14:40:07.246Z,94.84
2017-05-09T14:41:16.488Z,89.32
2017-05-09T14:42:25.443Z,84.36
2017-05-09T14:43:34.398Z,82.18
2017-05-09T14:44:43.351Z,82.14
2017-05-09T14:45:52.317Z,83.94
2017-05-09T14:47:01.657Z,81.37
2017-05-09T14:48:10.702Z,80.23
2017-05-09T14:49:19.744Z,78.71
2017-05-09T14:50:28.697Z,80.13
2017-05-09T14:51:37.659Z,85.37
2017-05-09T14:52:47.004Z,86.51